Sulaire — 2BUC5 — position and weather

sailwx.info

Track history (hours):
 
Tides and Currents Weather Stations Pressure Air Temp Water Temp Dewpoint Dewpoint Depression Visibility Wind Speed Wind Dir Waves Ship Positions

Sulaire

Last reported at 2017-May-22 16:53 UTC. Time now 2017-May-24 06:05 UTC.
Position N 37°42' W 000°48'.

Length 12 m.

Type: Sailing vessel. MMSI: 235069364.

Date/timePositionNaut miles runAvg speedWind from/ knotsBaromVisibWave heightAir tempDewpointWater temp
2017-May-22 16:53N 37°42' W 000°48'1 2.3
2017-May-22 16:30N 37°42' W 000°47'  
2017-May-19 09:01N 37°48' W 000°47'0 3.2
2017-May-19 09:00N 37°48' W 000°47'  
2017-May-16 15:32N 37°42' W 000°48'2 0.0
2017-May-14 13:22N 37°41' W 000°47'4 0.2
2017-May-13 11:18N 37°45' W 000°45'0 0.0
2017-May-13 08:38N 37°45' W 000°45'0 2.3
2017-May-13 08:30N 37°45' W 000°45'  
Track history (hours):
 
Tides and Currents Weather Stations Pressure Air Temp Water Temp Dewpoint Dewpoint Depression Visibility Wind Speed Wind Dir Waves Ship Positions

Sulaire

Last reported at 2017-May-22 16:53 UTC. Time now 2017-May-24 06:05 UTC.
Position N 37°42' W 000°48'.

Length 12 m.

Type: Sailing vessel. MMSI: 235069364.

Date/timePositionNaut miles runAvg speedWind from/ knotsBaromVisibWave heightAir tempDewpointWater temp
2017-May-22 16:53N 37°42' W 000°48'1 2.3
2017-May-22 16:30N 37°42' W 000°47'  
2017-May-19 09:01N 37°48' W 000°47'0 3.2
2017-May-19 09:00N 37°48' W 000°47'  
2017-May-16 15:32N 37°42' W 000°48'2 0.0
2017-May-14 13:22N 37°41' W 000°47'4 0.2
2017-May-13 11:18N 37°45' W 000°45'0 0.0
2017-May-13 08:38N 37°45' W 000°45'0 2.3
2017-May-13 08:30N 37°45' W 000°45'  

Dump ship's entire track history